UWSG Airport Information

Runway Information
Airport Frequencies
Airport Navaids
Airport Weather Information & NOTAM
ADDS - METARS form results

(0638 UTC 23 January 2022)
Data provider http://aviationweather.gov/metar/data/
 
METAR text: UWSG 230630Z 11005MPS 9999 BKN008 OVC025 M06/M08 Q1024 R08/890257 NOSIG RMK QFE766/1021
Conditions at: UWSG (SARATOV/GAGARIN , RU) observed 0630 UTC 23 January 2022
Temperature: -6.0°C (21°F)
Dewpoint: -8.0°C (18°F) [RH = 86%]
Pressure (altimeter): 30.24 inches Hg (1024.0 mb)
Winds: from the ESE (110 degrees) at 12 MPH (10 knots; 5.1 m/s)
Visibility: 6 or more miles (10+ km)
Ceiling: 800 feet AGL
Clouds: broken clouds at 800 feet AGL
overcast cloud deck at 2500 feet AGL
Weather: no significant weather observed at this time

METAR text: UWSG 230600Z 10004MPS 9999 BKN008 OVC025 M06/M07 Q1024 R08/890257 NOSIG RMK QFE766/1021
Conditions at: UWSG (SARATOV/GAGARIN , RU) observed 0600 UTC 23 January 2022
Temperature: -6.0°C (21°F)
Dewpoint: -7.0°C (19°F) [RH = 93%]
Pressure (altimeter): 30.24 inches Hg (1024.0 mb)
Winds: from the E (100 degrees) at 9 MPH (8 knots; 4.1 m/s)
Visibility: 6 or more miles (10+ km)
Ceiling: 800 feet AGL
Clouds: broken clouds at 800 feet AGL
overcast cloud deck at 2500 feet AGL
Weather: no significant weather observed at this time

Forecast for: UWSG (SARATOV/GAGARIN , RU)
Text: TAF UWSG 230500Z 2306/2315 10005G12MPS 2100 -SN BR OVC007 TXM06/2306Z TNM08/2315Z
Forecast period: 0600 to 1500 UTC 23 January 2022
Forecast type: FROM: standard forecast or significant change
Winds: from the E (100 degrees) at 12 MPH (10 knots; 5.1 m/s)
gusting to 26 MPH (23 knots; 11.8 m/s)
Visibility: 1.30 miles (2.09 km)
Ceiling: 700 feet AGL
Clouds: overcast cloud deck at 700 feet AGL
Weather: -SN BR  (light snow, mist)
Text: TEMPO 2306/2315 0500 FZDZ SN FZFG VV002
Forecast period: 0600 to 1500 UTC 23 January 2022
Forecast type: TEMPORARY: The following changes expected for less than half the time period
Visibility: 0.31 miles (0.50 km)
Ceiling: indefinite ceiling with vertical visibility of 200 feet AGL
Clouds: obscured sky
Weather: FZDZ SN FZFG  (freezing drizzle, moderate snow, freezing fog)